createdAt,value
2018-05-15T00:01:55.341Z,99336.58
2018-05-15T00:06:01.503Z,99342.83
2018-05-15T00:10:03.972Z,99337.98
2018-05-15T00:14:23.068Z,99339.08
2018-05-15T00:18:25.528Z,99337.20
2018-05-15T00:22:42.031Z,99346.73
2018-05-15T02:13:16.003Z,99306.83
2018-05-15T02:17:20.484Z,99311.92
2018-05-15T02:21:25.143Z,99316.89
2018-05-15T02:25:28.650Z,99312.16
2018-05-15T02:33:59.075Z,99315.45
2018-05-15T02:38:02.850Z,99314.22
2018-05-15T02:42:05.643Z,99312.06
2018-05-15T02:46:08.225Z,99316.52
2018-05-15T02:50:10.814Z,99321.05
2018-05-15T02:54:13.386Z,99312.22
2018-05-15T02:58:15.964Z,99308.78
2018-05-15T03:02:18.550Z,99315.55
2018-05-15T03:06:21.655Z,99320.12
2018-05-15T03:10:26.068Z,99312.58
2018-05-15T03:14:28.604Z,99301.05
2018-05-15T03:18:31.131Z,99297.50
2018-05-15T03:22:33.640Z,99301.88
2018-05-15T03:26:36.159Z,99306.80
2018-05-15T03:30:38.724Z,99301.91
2018-05-15T03:34:41.248Z,99302.34
2018-05-15T03:38:44.770Z,99297.50
2018-05-15T03:42:47.373Z,99297.66
2018-05-15T03:46:49.964Z,99297.42
2018-05-15T03:50:52.543Z,99294.91
2018-05-15T03:54:55.208Z,99291.48
2018-05-15T03:58:57.773Z,99290.13
2018-05-15T04:03:12.143Z,99286.23
2018-05-15T04:07:26.559Z,99268.22
2018-05-15T04:11:29.107Z,99282.82
2018-05-15T04:15:31.659Z,99286.02
2018-05-15T04:19:34.216Z,99289.83
2018-05-15T04:23:36.771Z,99297.24
2018-05-15T04:27:39.336Z,99304.02
2018-05-15T04:31:41.851Z,99298.88
2018-05-15T04:35:44.323Z,99312.97
2018-05-15T04:39:46.808Z,99301.53
2018-05-15T04:43:49.546Z,99294.94
2018-05-15T04:47:51.808Z,99295.41
2018-05-15T04:52:03.224Z,99298.02
2018-05-15T04:56:12.042Z,99300.57
2018-05-15T05:00:14.540Z,99301.33
2018-05-15T05:04:17.048Z,99307.82
2018-05-15T05:08:19.543Z,99293.16
2018-05-15T05:12:22.045Z,99297.53
2018-05-15T05:16:24.520Z,99301.98
2018-05-15T05:20:27.025Z,99312.27
2018-05-15T05:24:29.510Z,99299.53
2018-05-15T05:28:32.006Z,99304.73
2018-05-15T05:32:34.499Z,99308.65
2018-05-15T05:36:37.014Z,99308.19
2018-05-15T05:40:39.520Z,99310.88
2018-05-15T05:44:42.028Z,99317.44
2018-05-15T05:48:44.494Z,99313.81
2018-05-15T05:52:47.003Z,99320.63
2018-05-15T05:56:49.512Z,99329.08
2018-05-15T06:00:52.003Z,99332.38
2018-05-15T06:04:54.503Z,99330.19
2018-05-15T06:08:57.011Z,99333.23
2018-05-15T06:12:59.513Z,99328.99
2018-05-15T06:17:03.963Z,99328.56
2018-05-15T06:21:07.510Z,99336.06
2018-05-15T06:25:09.918Z,99338.81
2018-05-15T06:29:12.439Z,99346.93
2018-05-15T06:33:14.893Z,99357.20
2018-05-15T06:37:17.373Z,99350.77
2018-05-15T06:41:19.877Z,99354.78
2018-05-15T06:45:23.286Z,99353.11
2018-05-15T06:49:26.748Z,99350.09
2018-05-15T06:53:29.254Z,99356.32
2018-05-15T06:57:31.785Z,99361.37
2018-05-15T07:01:34.276Z,99357.52
2018-05-15T07:05:36.858Z,99356.72
2018-05-15T07:09:39.360Z,99366.42
2018-05-15T07:13:41.847Z,99366.00
2018-05-15T07:17:44.333Z,99368.06
2018-05-15T07:21:46.827Z,99364.40
2018-05-15T07:25:49.320Z,99357.27
2018-05-15T07:29:51.793Z,99363.29
2018-05-15T07:33:54.283Z,99363.63
2018-05-15T07:37:56.766Z,99370.28
2018-05-15T07:41:59.249Z,99366.71
2018-05-15T07:46:01.745Z,99365.72
2018-05-15T07:50:05.251Z,99377.28
2018-05-15T07:54:07.738Z,99375.16
2018-05-15T07:58:11.134Z,99368.99
2018-05-15T08:02:13.625Z,99369.05
2018-05-15T08:06:16.144Z,99376.58
2018-05-15T08:10:18.644Z,99375.28
2018-05-15T08:14:21.139Z,99377.96
2018-05-15T08:18:23.607Z,99377.04
2018-05-15T08:22:26.168Z,99370.50
2018-05-15T08:26:28.616Z,99381.17
2018-05-15T08:30:31.102Z,99372.78
2018-05-15T08:34:33.602Z,99376.70
2018-05-15T08:38:36.070Z,99375.31
2018-05-15T08:42:38.554Z,99372.23
2018-05-15T08:46:41.043Z,99366.65
2018-05-15T08:50:43.534Z,99362.73
2018-05-15T08:54:48.042Z,99366.70
2018-05-15T08:58:50.542Z,99374.20
2018-05-15T09:02:53.002Z,99371.03
2018-05-15T09:06:55.521Z,99383.36
2018-05-15T09:10:58.022Z,99380.31
2018-05-15T09:15:01.536Z,99381.72
2018-05-15T09:19:04.003Z,99388.53
2018-05-15T09:23:06.506Z,99383.28
2018-05-15T09:27:08.996Z,99388.98
2018-05-15T09:31:11.506Z,99377.95
2018-05-15T09:35:14.011Z,99380.58
2018-05-15T09:39:16.506Z,99379.73
2018-05-15T09:43:30.929Z,99381.92
2018-05-15T09:47:33.427Z,99381.20
2018-05-15T09:51:35.936Z,99382.68
2018-05-15T09:55:38.453Z,99388.41
2018-05-15T09:59:40.934Z,99387.11
2018-05-15T10:03:45.469Z,99385.90
2018-05-15T10:07:47.972Z,99384.72
2018-05-15T10:11:50.479Z,99385.55
2018-05-15T10:15:53.596Z,99387.77
2018-05-15T10:19:56.163Z,99383.69
2018-05-15T10:23:58.669Z,99374.81
2018-05-15T10:28:03.160Z,99378.38
2018-05-15T10:32:05.578Z,99377.49
2018-05-15T10:36:08.066Z,99377.06
2018-05-15T10:40:10.540Z,99377.14
2018-05-15T10:44:13.056Z,99383.31
2018-05-15T10:48:16.536Z,99379.22
2018-05-15T10:52:19.030Z,99375.22
2018-05-15T10:56:23.558Z,99373.52
2018-05-15T11:00:26.047Z,99371.38
2018-05-15T11:04:28.554Z,99374.92
2018-05-15T11:08:31.023Z,99369.23
2018-05-15T11:12:33.526Z,99374.11
2018-05-15T11:16:36.041Z,99369.69
2018-05-15T11:20:50.382Z,99371.38
2018-05-15T11:24:52.887Z,99369.16
2018-05-15T11:28:55.370Z,99363.09
2018-05-15T11:32:57.883Z,99368.39
2018-05-15T11:37:00.352Z,99378.00
2018-05-15T11:41:02.857Z,99377.98
2018-05-15T11:45:05.351Z,99381.92
2018-05-15T11:49:08.411Z,99378.81
2018-05-15T11:53:12.987Z,99378.76
2018-05-15T11:57:16.786Z,99376.14
2018-05-15T12:01:19.307Z,99382.76
2018-05-15T12:05:21.819Z,99392.23
2018-05-15T12:09:24.322Z,99395.47
2018-05-15T12:13:28.795Z,99393.31
2018-05-15T12:17:31.264Z,99386.17
2018-05-15T12:21:41.261Z,99387.94
2018-05-15T12:25:43.762Z,99384.80
2018-05-15T12:29:46.307Z,99390.02
2018-05-15T12:33:48.757Z,99390.39
2018-05-15T12:37:52.194Z,99381.61
2018-05-15T12:41:55.775Z,99387.39
2018-05-15T12:46:00.092Z,99378.55
2018-05-15T12:50:02.576Z,99389.26
2018-05-15T12:54:06.143Z,99391.91
2018-05-15T12:58:08.607Z,99391.50
2018-05-15T13:02:12.029Z,99385.37
2018-05-15T13:06:14.540Z,99387.06
2018-05-15T13:10:18.008Z,99390.09
2018-05-15T13:14:20.551Z,99394.94
2018-05-15T13:18:23.095Z,99389.20
2018-05-15T13:22:25.568Z,99384.23
2018-05-15T13:26:29.090Z,99380.39
2018-05-15T13:30:31.598Z,99380.44
2018-05-15T13:34:34.109Z,99383.52
2018-05-15T13:38:36.620Z,99386.66
2018-05-15T13:42:39.112Z,99380.91
2018-05-15T13:46:41.660Z,99387.96
2018-05-15T13:50:45.126Z,99391.53
2018-05-15T13:54:48.546Z,99387.55
2018-05-15T13:58:51.041Z,99390.28
2018-05-15T14:02:53.555Z,99395.07
2018-05-15T14:06:56.094Z,99393.23
2018-05-15T14:10:59.570Z,99386.72
2018-05-15T14:15:02.076Z,99382.39
2018-05-15T14:19:05.516Z,99388.39
2018-05-15T14:23:09.096Z,99389.09
2018-05-15T14:27:11.594Z,99382.27
2018-05-15T14:31:14.130Z,99381.81
2018-05-15T14:35:17.545Z,99383.59
2018-05-15T14:39:20.014Z,99381.84
2018-05-15T14:43:24.128Z,99380.08
2018-05-15T14:47:26.689Z,99386.20
2018-05-15T14:51:30.127Z,99385.27
2018-05-15T14:55:32.688Z,99391.20
2018-05-15T14:59:35.263Z,99392.94
2018-05-15T15:03:37.841Z,99397.83
2018-05-15T15:07:40.410Z,99393.68
2018-05-15T15:11:44.036Z,99392.76
2018-05-15T15:15:46.571Z,99391.05
2018-05-15T15:19:49.043Z,99395.84
2018-05-15T15:23:51.529Z,99390.11
2018-05-15T15:27:55.046Z,99396.27
2018-05-15T15:31:57.535Z,99388.87
2018-05-15T15:36:00.025Z,99388.44
2018-05-15T15:40:02.522Z,99390.56
2018-05-15T15:44:05.024Z,99386.91
2018-05-15T15:48:07.514Z,99383.73
2018-05-15T15:52:09.996Z,99390.73
2018-05-15T15:56:12.492Z,99384.10
2018-05-15T16:00:16.002Z,99384.47
2018-05-15T16:04:18.492Z,99378.18
2018-05-15T16:08:20.985Z,99371.95
2018-05-15T16:12:23.473Z,99372.81
2018-05-15T16:16:25.962Z,99371.86
2018-05-15T16:20:28.449Z,99368.28
2018-05-15T16:24:30.932Z,99362.48
2018-05-15T16:28:33.495Z,99367.81
2018-05-15T16:32:35.923Z,99361.16
2018-05-15T16:36:38.418Z,99357.97
2018-05-15T16:40:41.915Z,99349.19
2018-05-15T16:44:45.393Z,99352.23
2018-05-15T16:48:47.865Z,99353.16
2018-05-15T16:52:50.374Z,99344.81
2018-05-15T16:56:53.795Z,99355.52
2018-05-15T17:00:56.292Z,99353.36
2018-05-15T17:04:58.800Z,99347.66
2018-05-15T17:09:01.292Z,99342.25
2018-05-15T17:13:03.742Z,99340.47
2018-05-15T17:17:06.224Z,99338.77
2018-05-15T17:21:08.752Z,99336.58
2018-05-15T17:25:11.259Z,99334.80
2018-05-15T17:33:21.956Z,99330.05
2018-05-15T17:37:24.429Z,99329.31
2018-05-15T17:41:26.921Z,99329.91
2018-05-15T17:45:29.378Z,99326.42
2018-05-15T17:49:31.859Z,99330.83
2018-05-15T17:53:34.323Z,99331.69
2018-05-15T17:57:36.836Z,99325.55
2018-05-15T18:01:39.345Z,99320.78
2018-05-15T18:05:41.847Z,99322.16
2018-05-15T18:09:44.307Z,99328.89
2018-05-15T18:13:46.779Z,99324.57
2018-05-15T18:17:49.247Z,99325.95
2018-05-15T18:21:51.800Z,99330.39
2018-05-15T18:25:54.186Z,99332.15
2018-05-15T18:29:56.862Z,99330.02
2018-05-15T18:33:59.360Z,99337.57
2018-05-15T18:38:02.853Z,99334.48
2018-05-15T18:42:05.319Z,99344.71
2018-05-15T18:46:07.823Z,99349.23
2018-05-15T18:50:10.313Z,99346.21
2018-05-15T18:54:12.836Z,99343.22
2018-05-15T18:58:15.310Z,99346.41
2018-05-15T19:02:17.927Z,99358.82
2018-05-15T19:06:20.438Z,99360.58
2018-05-15T19:10:22.940Z,99360.12
2018-05-15T19:14:25.424Z,99359.72
2018-05-15T19:18:27.960Z,99366.80
2018-05-15T19:22:30.457Z,99367.72
2018-05-15T19:26:32.937Z,99362.91
2018-05-15T19:30:36.417Z,99358.09
2018-05-15T19:39:17.009Z,99379.36
2018-05-15T19:43:19.488Z,99379.84
2018-05-15T19:47:21.969Z,99376.80
2018-05-15T19:51:24.426Z,99387.02
2018-05-15T19:55:26.927Z,99393.20
2018-05-15T19:59:29.429Z,99404.27
2018-05-15T20:03:31.915Z,99399.41
2018-05-15T20:07:34.369Z,99407.38
2018-05-15T20:11:36.857Z,99409.13
2018-05-15T20:15:39.332Z,99413.16
2018-05-15T20:19:41.803Z,99404.37
2018-05-15T20:23:44.452Z,99414.55
2018-05-15T20:27:46.753Z,99415.97
2018-05-15T20:31:49.231Z,99428.36
2018-05-15T20:35:51.707Z,99419.56
2018-05-15T20:39:54.208Z,99424.45
2018-05-15T20:43:56.697Z,99425.77
2018-05-15T20:47:59.159Z,99423.13
2018-05-15T20:52:01.655Z,99430.20
2018-05-15T20:56:04.136Z,99430.68
2018-05-15T21:00:06.813Z,99429.83
2018-05-15T21:04:09.292Z,99433.83
2018-05-15T21:08:11.774Z,99429.86
2018-05-15T21:12:14.250Z,99433.80
2018-05-15T21:16:16.707Z,99424.06
2018-05-15T21:20:19.192Z,99424.52
2018-05-15T21:24:21.682Z,99419.20
2018-05-15T21:28:24.162Z,99420.55
2018-05-15T21:32:26.644Z,99417.03
2018-05-15T21:36:29.118Z,99425.89
2018-05-15T21:40:31.599Z,99426.32
2018-05-15T21:44:34.063Z,99422.80
2018-05-15T21:48:36.545Z,99426.34
2018-05-15T21:52:39.038Z,99425.02
2018-05-15T21:56:41.477Z,99423.70
2018-05-15T22:00:43.952Z,99423.70
2018-05-15T22:04:46.435Z,99425.02
2018-05-15T22:08:48.926Z,99429.40
2018-05-15T22:13:03.307Z,99425.88
2018-05-15T22:17:17.540Z,99428.14
2018-05-15T22:21:31.791Z,99420.66
2018-05-15T22:25:34.268Z,99412.72
2018-05-15T22:29:36.756Z,99412.27
2018-05-15T22:33:40.287Z,99410.95
2018-05-15T22:37:42.771Z,99406.56
2018-05-15T22:41:45.295Z,99410.12
2018-05-15T22:45:47.739Z,99403.98
2018-05-15T22:49:50.231Z,99400.94
2018-05-15T22:53:52.696Z,99393.86
2018-05-15T22:57:55.173Z,99387.72
2018-05-15T23:01:57.658Z,99393.47
2018-05-15T23:06:00.136Z,99390.41
2018-05-15T23:10:02.603Z,99385.15
2018-05-15T23:14:05.087Z,99393.06
2018-05-15T23:18:08.507Z,99388.20
2018-05-15T23:26:43.656Z,99382.50
2018-05-15T23:30:46.139Z,99388.68
2018-05-15T23:34:48.621Z,99387.80
2018-05-15T23:38:51.078Z,99381.16
2018-05-15T23:42:53.545Z,99382.88
2018-05-15T23:46:56.026Z,99386.83
2018-05-15T23:50:58.512Z,99385.94
2018-05-15T23:55:00.964Z,99377.11
2018-05-15T23:59:03.441Z,99385.91
